sensor_id;sensor_type;location;lat;lon;timestamp;P1;durP1;ratioP1;P2;durP2;ratioP2
53207;SDS011;39093;52.788;6.940;2023-05-17T00:02:26;19.10;;;4.90;;
53207;SDS011;39093;52.788;6.940;2023-05-17T00:04:53;20.80;;;6.22;;
53207;SDS011;39093;52.788;6.940;2023-05-17T00:07:20;22.48;;;5.35;;
53207;SDS011;39093;52.788;6.940;2023-05-17T00:09:47;29.13;;;5.68;;
53207;SDS011;39093;52.788;6.940;2023-05-17T00:12:14;18.77;;;4.68;;
53207;SDS011;39093;52.788;6.940;2023-05-17T00:14:41;21.60;;;6.32;;
53207;SDS011;39093;52.788;6.940;2023-05-17T00:17:07;20.25;;;5.63;;
53207;SDS011;39093;52.788;6.940;2023-05-17T00:19:34;22.65;;;5.95;;
53207;SDS011;39093;52.788;6.940;2023-05-17T00:22:01;22.70;;;5.43;;
53207;SDS011;39093;52.788;6.940;2023-05-17T00:24:28;17.00;;;5.65;;
53207;SDS011;39093;52.788;6.940;2023-05-17T00:26:55;19.23;;;5.00;;
53207;SDS011;39093;52.788;6.940;2023-05-17T00:29:22;17.88;;;5.10;;
53207;SDS011;39093;52.788;6.940;2023-05-17T00:31:49;17.17;;;4.07;;
53207;SDS011;39093;52.788;6.940;2023-05-17T00:34:16;24.15;;;4.95;;
53207;SDS011;39093;52.788;6.940;2023-05-17T00:36:43;14.48;;;4.18;;
53207;SDS011;39093;52.788;6.940;2023-05-17T00:39:09;16.58;;;5.22;;
53207;SDS011;39093;52.788;6.940;2023-05-17T00:41:37;16.85;;;4.85;;
53207;SDS011;39093;52.788;6.940;2023-05-17T00:44:05;12.73;;;3.47;;
53207;SDS011;39093;52.788;6.940;2023-05-17T00:46:34;19.55;;;4.57;;
53207;SDS011;39093;52.788;6.940;2023-05-17T00:49:07;16.00;;;4.18;;
53207;SDS011;39093;52.788;6.940;2023-05-17T00:51:37;16.58;;;4.30;;
53207;SDS011;39093;52.788;6.940;2023-05-17T00:54:05;17.08;;;4.53;;
53207;SDS011;39093;52.788;6.940;2023-05-17T00:56:33;14.93;;;4.18;;
53207;SDS011;39093;52.788;6.940;2023-05-17T00:59:11;19.98;;;4.65;;
53207;SDS011;39093;52.788;6.940;2023-05-17T01:01:42;18.52;;;4.57;;
53207;SDS011;39093;52.788;6.940;2023-05-17T01:04:11;18.80;;;4.78;;
53207;SDS011;39093;52.788;6.940;2023-05-17T01:06:38;23.05;;;4.78;;
53207;SDS011;39093;52.788;6.940;2023-05-17T01:09:05;19.35;;;5.22;;
53207;SDS011;39093;52.788;6.940;2023-05-17T01:17:01;12.25;;;3.45;;
53207;SDS011;39093;52.788;6.940;2023-05-17T01:25:24;32.70;;;5.47;;
53207;SDS011;39093;52.788;6.940;2023-05-17T01:28:07;24.90;;;4.07;;
53207;SDS011;39093;52.788;6.940;2023-05-17T01:30:37;16.23;;;3.42;;
53207;SDS011;39093;52.788;6.940;2023-05-17T01:33:05;19.63;;;4.03;;
53207;SDS011;39093;52.788;6.940;2023-05-17T01:35:40;22.75;;;4.43;;
53207;SDS011;39093;52.788;6.940;2023-05-17T01:38:09;18.38;;;4.00;;
53207;SDS011;39093;52.788;6.940;2023-05-17T01:40:38;22.73;;;3.42;;
53207;SDS011;39093;52.788;6.940;2023-05-17T01:43:16;19.90;;;3.50;;
53207;SDS011;39093;52.788;6.940;2023-05-17T01:46:54;22.33;;;5.03;;
53207;SDS011;39093;52.788;6.940;2023-05-17T01:51:48;18.67;;;4.63;;
53207;SDS011;39093;52.788;6.940;2023-05-17T01:54:38;20.42;;;4.57;;
53207;SDS011;39093;52.788;6.940;2023-05-17T01:57:27;29.50;;;4.53;;
53207;SDS011;39093;52.788;6.940;2023-05-17T02:00:06;23.67;;;4.07;;
53207;SDS011;39093;52.788;6.940;2023-05-17T02:02:37;20.77;;;3.72;;
53207;SDS011;39093;52.788;6.940;2023-05-17T02:05:07;23.83;;;4.93;;
53207;SDS011;39093;52.788;6.940;2023-05-17T02:07:34;22.90;;;3.70;;
53207;SDS011;39093;52.788;6.940;2023-05-17T02:10:01;18.98;;;3.47;;
53207;SDS011;39093;52.788;6.940;2023-05-17T02:12:29;22.33;;;3.95;;
53207;SDS011;39093;52.788;6.940;2023-05-17T02:14:55;19.08;;;4.75;;
53207;SDS011;39093;52.788;6.940;2023-05-17T02:17:22;21.83;;;4.00;;
53207;SDS011;39093;52.788;6.940;2023-05-17T02:19:49;19.42;;;4.20;;
53207;SDS011;39093;52.788;6.940;2023-05-17T02:22:16;30.02;;;5.38;;
53207;SDS011;39093;52.788;6.940;2023-05-17T02:24:43;21.85;;;5.03;;
53207;SDS011;39093;52.788;6.940;2023-05-17T02:27:10;18.27;;;4.47;;
53207;SDS011;39093;52.788;6.940;2023-05-17T02:29:37;25.80;;;4.95;;
53207;SDS011;39093;52.788;6.940;2023-05-17T02:32:04;22.98;;;4.55;;
53207;SDS011;39093;52.788;6.940;2023-05-17T02:34:31;24.85;;;4.32;;
53207;SDS011;39093;52.788;6.940;2023-05-17T02:37:07;18.98;;;3.72;;
53207;SDS011;39093;52.788;6.940;2023-05-17T02:39:39;19.00;;;4.13;;
53207;SDS011;39093;52.788;6.940;2023-05-17T02:42:06;19.65;;;4.65;;
53207;SDS011;39093;52.788;6.940;2023-05-17T02:44:33;19.90;;;3.63;;
53207;SDS011;39093;52.788;6.940;2023-05-17T02:47:00;21.88;;;3.72;;
53207;SDS011;39093;52.788;6.940;2023-05-17T02:49:27;20.75;;;4.07;;
53207;SDS011;39093;52.788;6.940;2023-05-17T02:51:54;20.33;;;4.53;;
53207;SDS011;39093;52.788;6.940;2023-05-17T02:54:21;18.38;;;3.55;;
53207;SDS011;39093;52.788;6.940;2023-05-17T02:56:48;16.00;;;3.40;;
53207;SDS011;39093;52.788;6.940;2023-05-17T02:59:15;26.20;;;4.25;;
53207;SDS011;39093;52.788;6.940;2023-05-17T03:01:42;22.70;;;4.43;;
53207;SDS011;39093;52.788;6.940;2023-05-17T03:04:08;25.55;;;4.75;;
53207;SDS011;39093;52.788;6.940;2023-05-17T03:06:36;17.50;;;2.80;;
53207;SDS011;39093;52.788;6.940;2023-05-17T03:09:03;23.60;;;3.88;;
53207;SDS011;39093;52.788;6.940;2023-05-17T03:11:30;25.15;;;5.18;;
53207;SDS011;39093;52.788;6.940;2023-05-17T03:13:58;23.08;;;4.03;;
53207;SDS011;39093;52.788;6.940;2023-05-17T03:16:26;27.42;;;4.78;;
53207;SDS011;39093;52.788;6.940;2023-05-17T03:18:53;25.60;;;4.65;;
53207;SDS011;39093;52.788;6.940;2023-05-17T03:21:28;24.30;;;4.05;;
53207;SDS011;39093;52.788;6.940;2023-05-17T03:23:54;23.45;;;4.45;;
53207;SDS011;39093;52.788;6.940;2023-05-17T03:26:21;21.67;;;4.63;;
53207;SDS011;39093;52.788;6.940;2023-05-17T03:28:49;24.13;;;4.55;;
53207;SDS011;39093;52.788;6.940;2023-05-17T03:31:16;21.25;;;4.45;;
53207;SDS011;39093;52.788;6.940;2023-05-17T03:33:44;28.38;;;3.92;;
53207;SDS011;39093;52.788;6.940;2023-05-17T03:36:11;19.25;;;3.58;;
53207;SDS011;39093;52.788;6.940;2023-05-17T03:38:38;22.63;;;4.40;;
53207;SDS011;39093;52.788;6.940;2023-05-17T03:41:05;26.02;;;4.25;;
53207;SDS011;39093;52.788;6.940;2023-05-17T03:43:32;20.42;;;4.63;;
53207;SDS011;39093;52.788;6.940;2023-05-17T03:45:59;15.20;;;3.10;;
53207;SDS011;39093;52.788;6.940;2023-05-17T03:48:26;24.10;;;5.20;;
53207;SDS011;39093;52.788;6.940;2023-05-17T03:50:53;26.48;;;5.22;;
53207;SDS011;39093;52.788;6.940;2023-05-17T03:53:20;20.13;;;4.45;;
53207;SDS011;39093;52.788;6.940;2023-05-17T03:55:47;21.30;;;3.72;;
53207;SDS011;39093;52.788;6.940;2023-05-17T03:58:14;21.20;;;4.32;;
53207;SDS011;39093;52.788;6.940;2023-05-17T04:00:41;18.13;;;4.20;;
53207;SDS011;39093;52.788;6.940;2023-05-17T04:03:08;19.65;;;4.00;;
53207;SDS011;39093;52.788;6.940;2023-05-17T04:05:34;17.85;;;3.58;;
53207;SDS011;39093;52.788;6.940;2023-05-17T04:08:01;18.65;;;3.70;;
53207;SDS011;39093;52.788;6.940;2023-05-17T04:10:28;26.58;;;4.00;;
53207;SDS011;39093;52.788;6.940;2023-05-17T04:12:56;20.45;;;3.45;;
53207;SDS011;39093;52.788;6.940;2023-05-17T04:15:22;21.55;;;4.00;;
53207;SDS011;39093;52.788;6.940;2023-05-17T04:17:49;18.27;;;3.97;;
53207;SDS011;39093;52.788;6.940;2023-05-17T04:20:16;19.08;;;3.60;;
53207;SDS011;39093;52.788;6.940;2023-05-17T04:22:43;19.85;;;3.90;;
53207;SDS011;39093;52.788;6.940;2023-05-17T04:25:17;19.25;;;3.13;;
53207;SDS011;39093;52.788;6.940;2023-05-17T04:27:44;15.25;;;3.88;;
53207;SDS011;39093;52.788;6.940;2023-05-17T04:30:11;17.20;;;2.75;;
53207;SDS011;39093;52.788;6.940;2023-05-17T04:32:38;21.70;;;3.50;;
53207;SDS011;39093;52.788;6.940;2023-05-17T04:35:05;18.70;;;3.03;;
53207;SDS011;39093;52.788;6.940;2023-05-17T04:37:32;14.93;;;3.47;;
53207;SDS011;39093;52.788;6.940;2023-05-17T04:40:00;19.13;;;3.17;;
53207;SDS011;39093;52.788;6.940;2023-05-17T04:42:27;20.83;;;3.92;;
53207;SDS011;39093;52.788;6.940;2023-05-17T04:44:54;14.60;;;3.40;;
53207;SDS011;39093;52.788;6.940;2023-05-17T04:47:22;13.40;;;3.30;;
53207;SDS011;39093;52.788;6.940;2023-05-17T04:49:49;14.10;;;4.07;;
53207;SDS011;39093;52.788;6.940;2023-05-17T04:52:16;22.35;;;4.07;;
53207;SDS011;39093;52.788;6.940;2023-05-17T04:54:43;20.67;;;3.22;;
53207;SDS011;39093;52.788;6.940;2023-05-17T04:57:10;14.30;;;3.20;;
53207;SDS011;39093;52.788;6.940;2023-05-17T04:59:37;20.67;;;2.92;;
53207;SDS011;39093;52.788;6.940;2023-05-17T05:02:04;17.55;;;3.53;;
53207;SDS011;39093;52.788;6.940;2023-05-17T05:04:32;17.70;;;3.00;;
53207;SDS011;39093;52.788;6.940;2023-05-17T05:06:58;20.00;;;3.15;;
53207;SDS011;39093;52.788;6.940;2023-05-17T05:09:25;17.15;;;3.22;;
53207;SDS011;39093;52.788;6.940;2023-05-17T05:11:52;15.60;;;3.08;;
53207;SDS011;39093;52.788;6.940;2023-05-17T05:14:19;13.18;;;2.53;;
53207;SDS011;39093;52.788;6.940;2023-05-17T05:16:46;19.40;;;3.10;;
53207;SDS011;39093;52.788;6.940;2023-05-17T05:19:13;18.55;;;3.28;;
53207;SDS011;39093;52.788;6.940;2023-05-17T05:21:43;15.15;;;3.67;;
53207;SDS011;39093;52.788;6.940;2023-05-17T05:24:11;17.25;;;3.65;;
53207;SDS011;39093;52.788;6.940;2023-05-17T05:26:37;11.70;;;2.97;;
53207;SDS011;39093;52.788;6.940;2023-05-17T05:29:04;13.88;;;2.67;;
53207;SDS011;39093;52.788;6.940;2023-05-17T05:31:31;18.42;;;3.33;;
53207;SDS011;39093;52.788;6.940;2023-05-17T05:33:58;15.15;;;2.47;;
53207;SDS011;39093;52.788;6.940;2023-05-17T05:36:26;16.83;;;2.83;;
53207;SDS011;39093;52.788;6.940;2023-05-17T05:38:53;17.27;;;2.90;;
53207;SDS011;39093;52.788;6.940;2023-05-17T05:41:20;16.83;;;2.80;;
53207;SDS011;39093;52.788;6.940;2023-05-17T05:43:47;15.65;;;2.25;;
53207;SDS011;39093;52.788;6.940;2023-05-17T05:46:14;8.15;;;1.77;;
53207;SDS011;39093;52.788;6.940;2023-05-17T05:48:41;13.10;;;2.75;;
53207;SDS011;39093;52.788;6.940;2023-05-17T05:51:08;16.85;;;2.45;;
53207;SDS011;39093;52.788;6.940;2023-05-17T05:53:36;11.25;;;2.05;;
53207;SDS011;39093;52.788;6.940;2023-05-17T05:56:04;9.90;;;1.65;;
53207;SDS011;39093;52.788;6.940;2023-05-17T05:58:31;10.27;;;1.75;;
53207;SDS011;39093;52.788;6.940;2023-05-17T06:00:58;9.43;;;2.45;;
53207;SDS011;39093;52.788;6.940;2023-05-17T06:03:25;10.68;;;2.30;;
53207;SDS011;39093;52.788;6.940;2023-05-17T06:05:52;11.40;;;1.70;;
53207;SDS011;39093;52.788;6.940;2023-05-17T06:08:19;11.02;;;2.25;;
53207;SDS011;39093;52.788;6.940;2023-05-17T06:10:46;13.15;;;2.58;;
53207;SDS011;39093;52.788;6.940;2023-05-17T06:13:13;15.90;;;2.55;;
53207;SDS011;39093;52.788;6.940;2023-05-17T06:15:40;9.77;;;1.75;;
53207;SDS011;39093;52.788;6.940;2023-05-17T06:18:06;12.02;;;1.80;;
53207;SDS011;39093;52.788;6.940;2023-05-17T06:20:34;8.38;;;1.50;;
53207;SDS011;39093;52.788;6.940;2023-05-17T06:23:01;9.50;;;1.45;;
53207;SDS011;39093;52.788;6.940;2023-05-17T06:25:30;11.90;;;2.05;;
53207;SDS011;39093;52.788;6.940;2023-05-17T06:27:57;8.32;;;1.80;;
53207;SDS011;39093;52.788;6.940;2023-05-17T06:30:24;6.93;;;1.40;;
53207;SDS011;39093;52.788;6.940;2023-05-17T06:32:53;17.90;;;2.38;;
53207;SDS011;39093;52.788;6.940;2023-05-17T06:35:20;14.73;;;2.63;;
53207;SDS011;39093;52.788;6.940;2023-05-17T06:37:47;12.23;;;1.83;;
53207;SDS011;39093;52.788;6.940;2023-05-17T06:40:14;6.82;;;1.65;;
53207;SDS011;39093;52.788;6.940;2023-05-17T06:42:42;5.90;;;1.55;;
53207;SDS011;39093;52.788;6.940;2023-05-17T06:45:09;8.05;;;1.80;;
53207;SDS011;39093;52.788;6.940;2023-05-17T06:47:36;8.85;;;1.67;;
53207;SDS011;39093;52.788;6.940;2023-05-17T06:50:04;7.85;;;1.35;;
53207;SDS011;39093;52.788;6.940;2023-05-17T06:52:32;9.02;;;2.42;;
53207;SDS011;39093;52.788;6.940;2023-05-17T06:54:59;14.45;;;3.13;;
53207;SDS011;39093;52.788;6.940;2023-05-17T06:57:26;9.60;;;1.75;;
53207;SDS011;39093;52.788;6.940;2023-05-17T06:59:53;12.65;;;1.88;;
53207;SDS011;39093;52.788;6.940;2023-05-17T07:02:20;12.50;;;2.17;;
53207;SDS011;39093;52.788;6.940;2023-05-17T07:04:46;12.23;;;2.05;;
53207;SDS011;39093;52.788;6.940;2023-05-17T07:07:14;11.52;;;2.25;;
53207;SDS011;39093;52.788;6.940;2023-05-17T07:09:41;12.80;;;2.88;;
53207;SDS011;39093;52.788;6.940;2023-05-17T07:12:07;11.65;;;2.53;;
53207;SDS011;39093;52.788;6.940;2023-05-17T07:14:34;9.85;;;2.13;;
53207;SDS011;39093;52.788;6.940;2023-05-17T07:17:01;9.90;;;1.77;;
53207;SDS011;39093;52.788;6.940;2023-05-17T07:19:28;15.43;;;2.63;;
53207;SDS011;39093;52.788;6.940;2023-05-17T07:21:55;13.27;;;2.47;;
53207;SDS011;39093;52.788;6.940;2023-05-17T07:24:22;8.63;;;1.73;;
53207;SDS011;39093;52.788;6.940;2023-05-17T07:26:49;8.93;;;2.20;;
53207;SDS011;39093;52.788;6.940;2023-05-17T07:29:17;9.30;;;2.22;;
53207;SDS011;39093;52.788;6.940;2023-05-17T07:31:44;10.18;;;2.35;;
53207;SDS011;39093;52.788;6.940;2023-05-17T07:34:12;9.07;;;2.35;;
53207;SDS011;39093;52.788;6.940;2023-05-17T07:36:39;13.48;;;2.70;;
53207;SDS011;39093;52.788;6.940;2023-05-17T07:39:07;16.52;;;2.55;;
53207;SDS011;39093;52.788;6.940;2023-05-17T07:41:35;12.20;;;2.90;;
53207;SDS011;39093;52.788;6.940;2023-05-17T07:44:02;13.20;;;2.33;;
53207;SDS011;39093;52.788;6.940;2023-05-17T07:46:29;16.02;;;2.97;;
53207;SDS011;39093;52.788;6.940;2023-05-17T07:48:56;14.30;;;2.90;;
53207;SDS011;39093;52.788;6.940;2023-05-17T07:51:24;12.98;;;2.30;;
53207;SDS011;39093;52.788;6.940;2023-05-17T07:53:51;14.40;;;2.92;;
53207;SDS011;39093;52.788;6.940;2023-05-17T07:56:18;15.82;;;2.75;;
53207;SDS011;39093;52.788;6.940;2023-05-17T07:58:45;14.10;;;2.60;;
53207;SDS011;39093;52.788;6.940;2023-05-17T08:01:12;14.68;;;3.10;;
53207;SDS011;39093;52.788;6.940;2023-05-17T08:03:39;16.48;;;3.38;;
53207;SDS011;39093;52.788;6.940;2023-05-17T08:06:14;15.80;;;3.72;;
53207;SDS011;39093;52.788;6.940;2023-05-17T08:08:41;15.10;;;3.10;;
53207;SDS011;39093;52.788;6.940;2023-05-17T08:11:09;14.80;;;3.08;;
53207;SDS011;39093;52.788;6.940;2023-05-17T08:13:37;14.10;;;3.22;;
53207;SDS011;39093;52.788;6.940;2023-05-17T08:16:04;10.18;;;2.92;;
53207;SDS011;39093;52.788;6.940;2023-05-17T08:18:40;12.93;;;2.13;;
53207;SDS011;39093;52.788;6.940;2023-05-17T08:21:07;17.73;;;3.42;;
53207;SDS011;39093;52.788;6.940;2023-05-17T08:23:35;12.02;;;2.40;;
53207;SDS011;39093;52.788;6.940;2023-05-17T08:26:02;17.10;;;3.20;;
53207;SDS011;39093;52.788;6.940;2023-05-17T08:28:31;16.02;;;3.30;;
53207;SDS011;39093;52.788;6.940;2023-05-17T08:30:58;15.90;;;3.10;;
53207;SDS011;39093;52.788;6.940;2023-05-17T08:33:25;17.25;;;2.97;;
53207;SDS011;39093;52.788;6.940;2023-05-17T08:35:52;13.27;;;2.33;;
53207;SDS011;39093;52.788;6.940;2023-05-17T08:38:22;16.20;;;3.00;;
53207;SDS011;39093;52.788;6.940;2023-05-17T08:40:53;19.13;;;3.50;;
53207;SDS011;39093;52.788;6.940;2023-05-17T08:43:21;13.25;;;2.78;;
53207;SDS011;39093;52.788;6.940;2023-05-17T08:45:53;15.48;;;2.67;;
53207;SDS011;39093;52.788;6.940;2023-05-17T08:48:23;19.70;;;3.50;;
53207;SDS011;39093;52.788;6.940;2023-05-17T08:50:56;15.60;;;2.63;;
53207;SDS011;39093;52.788;6.940;2023-05-17T08:53:25;10.27;;;2.22;;
53207;SDS011;39093;52.788;6.940;2023-05-17T08:55:54;11.55;;;2.38;;
53207;SDS011;39093;52.788;6.940;2023-05-17T08:58:26;36.67;;;15.23;;
53207;SDS011;39093;52.788;6.940;2023-05-17T09:01:06;15.40;;;2.75;;
53207;SDS011;39093;52.788;6.940;2023-05-17T09:03:34;14.90;;;2.83;;
53207;SDS011;39093;52.788;6.940;2023-05-17T09:06:06;15.23;;;3.30;;
53207;SDS011;39093;52.788;6.940;2023-05-17T09:08:35;9.48;;;2.58;;
53207;SDS011;39093;52.788;6.940;2023-05-17T09:11:03;12.98;;;2.05;;
53207;SDS011;39093;52.788;6.940;2023-05-17T09:13:30;15.20;;;2.10;;
53207;SDS011;39093;52.788;6.940;2023-05-17T09:15:57;11.77;;;1.92;;
53207;SDS011;39093;52.788;6.940;2023-05-17T09:19:02;9.07;;;2.00;;
53207;SDS011;39093;52.788;6.940;2023-05-17T09:24:28;10.50;;;1.83;;
53207;SDS011;39093;52.788;6.940;2023-05-17T09:26:59;11.65;;;1.90;;
53207;SDS011;39093;52.788;6.940;2023-05-17T09:29:32;11.65;;;2.25;;
53207;SDS011;39093;52.788;6.940;2023-05-17T09:32:12;12.57;;;3.15;;
53207;SDS011;39093;52.788;6.940;2023-05-17T09:34:40;12.27;;;2.33;;
53207;SDS011;39093;52.788;6.940;2023-05-17T09:37:11;12.77;;;2.55;;
53207;SDS011;39093;52.788;6.940;2023-05-17T09:39:40;12.45;;;2.75;;
53207;SDS011;39093;52.788;6.940;2023-05-17T09:42:07;11.02;;;2.58;;
53207;SDS011;39093;52.788;6.940;2023-05-17T09:44:44;12.30;;;2.53;;
53207;SDS011;39093;52.788;6.940;2023-05-17T09:47:25;10.23;;;2.33;;
53207;SDS011;39093;52.788;6.940;2023-05-17T09:49:55;7.82;;;1.90;;
53207;SDS011;39093;52.788;6.940;2023-05-17T09:52:23;7.10;;;1.88;;
53207;SDS011;39093;52.788;6.940;2023-05-17T09:54:51;11.93;;;2.33;;
53207;SDS011;39093;52.788;6.940;2023-05-17T09:57:19;14.00;;;2.97;;
53207;SDS011;39093;52.788;6.940;2023-05-17T10:00:02;18.15;;;2.25;;
53207;SDS011;39093;52.788;6.940;2023-05-17T10:02:38;12.35;;;2.30;;
53207;SDS011;39093;52.788;6.940;2023-05-17T10:05:09;13.38;;;2.72;;
53207;SDS011;39093;52.788;6.940;2023-05-17T10:07:37;16.30;;;3.08;;
53207;SDS011;39093;52.788;6.940;2023-05-17T10:10:06;14.77;;;2.72;;
53207;SDS011;39093;52.788;6.940;2023-05-17T10:12:34;16.23;;;2.92;;
53207;SDS011;39093;52.788;6.940;2023-05-17T10:15:04;19.20;;;3.80;;
53207;SDS011;39093;52.788;6.940;2023-05-17T10:17:33;14.27;;;2.95;;
53207;SDS011;39093;52.788;6.940;2023-05-17T10:20:02;12.40;;;2.13;;
53207;SDS011;39093;52.788;6.940;2023-05-17T10:22:32;12.45;;;2.40;;
53207;SDS011;39093;52.788;6.940;2023-05-17T10:24:59;8.82;;;1.73;;
53207;SDS011;39093;52.788;6.940;2023-05-17T10:27:26;11.07;;;2.53;;
53207;SDS011;39093;52.788;6.940;2023-05-17T10:30:04;10.70;;;2.15;;
53207;SDS011;39093;52.788;6.940;2023-05-17T10:32:35;10.15;;;2.35;;
53207;SDS011;39093;52.788;6.940;2023-05-17T10:35:02;10.73;;;2.20;;
53207;SDS011;39093;52.788;6.940;2023-05-17T10:37:38;12.30;;;2.58;;
53207;SDS011;39093;52.788;6.940;2023-05-17T10:40:06;9.30;;;1.90;;
53207;SDS011;39093;52.788;6.940;2023-05-17T10:42:43;11.70;;;2.10;;
53207;SDS011;39093;52.788;6.940;2023-05-17T10:45:19;11.32;;;1.92;;
53207;SDS011;39093;52.788;6.940;2023-05-17T10:47:49;9.60;;;2.00;;
53207;SDS011;39093;52.788;6.940;2023-05-17T10:50:21;9.63;;;2.15;;
53207;SDS011;39093;52.788;6.940;2023-05-17T10:52:49;10.23;;;2.13;;
53207;SDS011;39093;52.788;6.940;2023-05-17T10:55:18;13.45;;;2.30;;
53207;SDS011;39093;52.788;6.940;2023-05-17T10:57:57;13.50;;;2.58;;
53207;SDS011;39093;52.788;6.940;2023-05-17T11:00:39;11.95;;;2.03;;
53207;SDS011;39093;52.788;6.940;2023-05-17T11:03:17;9.10;;;1.95;;
53207;SDS011;39093;52.788;6.940;2023-05-17T11:11:37;9.00;;;2.33;;
53207;SDS011;39093;52.788;6.940;2023-05-17T11:17:14;10.63;;;2.05;;
53207;SDS011;39093;52.788;6.940;2023-05-17T11:22:24;11.35;;;2.15;;
53207;SDS011;39093;52.788;6.940;2023-05-17T11:24:53;12.73;;;1.98;;
53207;SDS011;39093;52.788;6.940;2023-05-17T11:27:24;17.67;;;6.80;;
53207;SDS011;39093;52.788;6.940;2023-05-17T11:29:55;11.23;;;1.88;;
53207;SDS011;39093;52.788;6.940;2023-05-17T11:32:30;6.22;;;1.80;;
53207;SDS011;39093;52.788;6.940;2023-05-17T11:35:11;9.48;;;2.10;;
53207;SDS011;39093;52.788;6.940;2023-05-17T11:37:41;8.70;;;1.63;;
53207;SDS011;39093;52.788;6.940;2023-05-17T11:40:13;11.05;;;2.05;;
53207;SDS011;39093;52.788;6.940;2023-05-17T11:42:49;6.43;;;1.45;;
53207;SDS011;39093;52.788;6.940;2023-05-17T11:45:45;8.32;;;2.20;;
53207;SDS011;39093;52.788;6.940;2023-05-17T11:48:19;8.52;;;2.10;;
53207;SDS011;39093;52.788;6.940;2023-05-17T11:50:48;11.85;;;2.45;;
53207;SDS011;39093;52.788;6.940;2023-05-17T11:53:16;10.70;;;2.10;;
53207;SDS011;39093;52.788;6.940;2023-05-17T11:55:45;8.30;;;2.60;;
53207;SDS011;39093;52.788;6.940;2023-05-17T11:58:14;7.90;;;2.13;;
53207;SDS011;39093;52.788;6.940;2023-05-17T12:00:56;13.65;;;1.75;;
53207;SDS011;39093;52.788;6.940;2023-05-17T12:03:27;8.68;;;1.80;;
53207;SDS011;39093;52.788;6.940;2023-05-17T12:06:05;7.15;;;2.60;;
53207;SDS011;39093;52.788;6.940;2023-05-17T12:08:33;8.60;;;2.20;;
53207;SDS011;39093;52.788;6.940;2023-05-17T12:11:02;4.82;;;1.75;;
53207;SDS011;39093;52.788;6.940;2023-05-17T12:13:31;7.65;;;2.10;;
53207;SDS011;39093;52.788;6.940;2023-05-17T12:16:00;5.63;;;1.50;;
53207;SDS011;39093;52.788;6.940;2023-05-17T12:18:41;11.40;;;2.20;;
53207;SDS011;39093;52.788;6.940;2023-05-17T12:21:17;8.38;;;1.80;;
53207;SDS011;39093;52.788;6.940;2023-05-17T12:23:47;8.57;;;1.42;;
53207;SDS011;39093;52.788;6.940;2023-05-17T12:26:17;7.93;;;1.75;;
53207;SDS011;39093;52.788;6.940;2023-05-17T12:28:56;4.85;;;1.30;;
53207;SDS011;39093;52.788;6.940;2023-05-17T12:31:26;9.63;;;1.55;;
53207;SDS011;39093;52.788;6.940;2023-05-17T12:33:54;5.40;;;1.25;;
53207;SDS011;39093;52.788;6.940;2023-05-17T12:36:21;11.52;;;2.03;;
53207;SDS011;39093;52.788;6.940;2023-05-17T12:38:48;9.10;;;1.80;;
53207;SDS011;39093;52.788;6.940;2023-05-17T12:41:16;9.73;;;1.88;;
53207;SDS011;39093;52.788;6.940;2023-05-17T12:43:44;9.18;;;1.95;;
53207;SDS011;39093;52.788;6.940;2023-05-17T12:46:12;5.68;;;1.48;;
53207;SDS011;39093;52.788;6.940;2023-05-17T12:48:43;8.03;;;1.53;;
53207;SDS011;39093;52.788;6.940;2023-05-17T12:51:15;6.35;;;1.95;;
53207;SDS011;39093;52.788;6.940;2023-05-17T12:53:49;7.35;;;1.55;;
53207;SDS011;39093;52.788;6.940;2023-05-17T12:56:18;7.82;;;2.17;;
53207;SDS011;39093;52.788;6.940;2023-05-17T12:59:11;13.63;;;2.30;;
53207;SDS011;39093;52.788;6.940;2023-05-17T13:01:49;7.43;;;2.28;;
53207;SDS011;39093;52.788;6.940;2023-05-17T13:04:18;4.82;;;1.55;;
53207;SDS011;39093;52.788;6.940;2023-05-17T13:06:50;8.27;;;2.10;;
53207;SDS011;39093;52.788;6.940;2023-05-17T13:09:17;7.53;;;1.80;;
53207;SDS011;39093;52.788;6.940;2023-05-17T13:11:52;9.80;;;1.95;;
53207;SDS011;39093;52.788;6.940;2023-05-17T13:17:16;11.10;;;2.17;;
53207;SDS011;39093;52.788;6.940;2023-05-17T13:19:59;5.60;;;1.60;;
53207;SDS011;39093;52.788;6.940;2023-05-17T13:22:26;8.88;;;1.95;;
53207;SDS011;39093;52.788;6.940;2023-05-17T13:24:53;9.23;;;2.00;;
53207;SDS011;39093;52.788;6.940;2023-05-17T13:27:21;8.30;;;1.88;;
53207;SDS011;39093;52.788;6.940;2023-05-17T13:29:47;8.52;;;1.70;;
53207;SDS011;39093;52.788;6.940;2023-05-17T13:32:14;7.95;;;1.85;;
53207;SDS011;39093;52.788;6.940;2023-05-17T13:34:41;8.20;;;1.77;;
53207;SDS011;39093;52.788;6.940;2023-05-17T13:37:08;6.65;;;2.22;;
53207;SDS011;39093;52.788;6.940;2023-05-17T13:39:38;9.13;;;2.00;;
53207;SDS011;39093;52.788;6.940;2023-05-17T13:42:07;9.63;;;2.42;;
53207;SDS011;39093;52.788;6.940;2023-05-17T13:44:34;10.13;;;2.42;;
53207;SDS011;39093;52.788;6.940;2023-05-17T13:47:03;8.95;;;2.00;;
53207;SDS011;39093;52.788;6.940;2023-05-17T13:49:31;9.93;;;2.40;;
53207;SDS011;39093;52.788;6.940;2023-05-17T13:51:57;7.78;;;2.25;;
53207;SDS011;39093;52.788;6.940;2023-05-17T13:54:25;8.07;;;1.90;;
53207;SDS011;39093;52.788;6.940;2023-05-17T13:56:53;7.13;;;2.17;;
53207;SDS011;39093;52.788;6.940;2023-05-17T13:59:20;7.15;;;2.20;;
53207;SDS011;39093;52.788;6.940;2023-05-17T14:01:47;7.00;;;1.70;;
53207;SDS011;39093;52.788;6.940;2023-05-17T14:04:14;10.10;;;2.60;;
53207;SDS011;39093;52.788;6.940;2023-05-17T14:06:41;6.50;;;1.23;;
53207;SDS011;39093;52.788;6.940;2023-05-17T14:09:09;10.55;;;1.77;;
53207;SDS011;39093;52.788;6.940;2023-05-17T14:11:35;10.13;;;2.22;;
53207;SDS011;39093;52.788;6.940;2023-05-17T14:14:03;8.90;;;1.77;;
53207;SDS011;39093;52.788;6.940;2023-05-17T14:16:30;7.03;;;2.05;;
53207;SDS011;39093;52.788;6.940;2023-05-17T14:18:57;8.35;;;1.98;;
53207;SDS011;39093;52.788;6.940;2023-05-17T14:21:28;10.98;;;3.05;;
53207;SDS011;39093;52.788;6.940;2023-05-17T14:23:54;9.40;;;1.80;;
53207;SDS011;39093;52.788;6.940;2023-05-17T14:26:21;9.05;;;2.42;;
53207;SDS011;39093;52.788;6.940;2023-05-17T14:28:49;8.25;;;1.98;;
53207;SDS011;39093;52.788;6.940;2023-05-17T14:31:16;10.30;;;1.98;;
53207;SDS011;39093;52.788;6.940;2023-05-17T14:33:43;8.57;;;2.05;;
53207;SDS011;39093;52.788;6.940;2023-05-17T14:36:10;7.95;;;1.85;;
53207;SDS011;39093;52.788;6.940;2023-05-17T14:38:39;10.60;;;2.28;;
53207;SDS011;39093;52.788;6.940;2023-05-17T14:41:06;10.43;;;2.28;;
53207;SDS011;39093;52.788;6.940;2023-05-17T14:43:33;10.85;;;2.65;;
53207;SDS011;39093;52.788;6.940;2023-05-17T14:46:00;9.00;;;1.88;;
53207;SDS011;39093;52.788;6.940;2023-05-17T14:48:27;9.60;;;1.77;;
53207;SDS011;39093;52.788;6.940;2023-05-17T14:50:54;7.90;;;2.10;;
53207;SDS011;39093;52.788;6.940;2023-05-17T14:53:20;11.75;;;3.15;;
53207;SDS011;39093;52.788;6.940;2023-05-17T14:55:48;7.97;;;2.50;;
53207;SDS011;39093;52.788;6.940;2023-05-17T14:58:15;9.52;;;2.35;;
53207;SDS011;39093;52.788;6.940;2023-05-17T15:00:42;9.07;;;1.92;;
53207;SDS011;39093;52.788;6.940;2023-05-17T15:03:16;9.45;;;2.10;;
53207;SDS011;39093;52.788;6.940;2023-05-17T15:05:54;9.55;;;2.00;;
53207;SDS011;39093;52.788;6.940;2023-05-17T15:08:21;12.45;;;2.88;;
53207;SDS011;39093;52.788;6.940;2023-05-17T15:10:49;10.20;;;2.28;;
53207;SDS011;39093;52.788;6.940;2023-05-17T15:13:16;9.38;;;1.98;;
53207;SDS011;39093;52.788;6.940;2023-05-17T15:15:43;9.18;;;2.05;;
53207;SDS011;39093;52.788;6.940;2023-05-17T15:18:11;7.72;;;2.03;;
53207;SDS011;39093;52.788;6.940;2023-05-17T15:20:41;5.18;;;2.28;;
53207;SDS011;39093;52.788;6.940;2023-05-17T15:23:08;9.02;;;1.73;;